• Join FlightAware (Why Join?)
  • Login
  • US Flag 
10:00AM EST


 

Airport Tracker/Info


-or-


 

Live Flight TrackerFlight Track Log ✈ THY2042 ✈ 08-Jul-2013 ✈ LTBA / IST - LTAN / KYA

Flight Track Log - Related Links

Times and Time Zones

All times are in EDT time to prevent confusion due to time zone crossing. See the THY2042 flight status page for this flight to view local times or setup timezone preferences in your user account.

Time Position Orientation Groundspeed Altitude Reporting Facility
EDT Latitude Longitude Course Direction KTS MPH feet Rate Location/Type
04:19PM 40.5559 29.3759 135° Southeast  Level Estimated
04:20PM 40.4855 29.4677 135° Southeast  Level Estimated
04:21PM 40.4150 29.5593 135° Southeast  Level Estimated
04:22PM 40.3444 29.6507 135° Southeast  Level Estimated
04:23PM 40.2738 29.7420 135° Southeast  Level Estimated
04:24PM 40.2030 29.8330 135° Southeast  Level Estimated
04:25PM 40.1323 29.9238 136° Southeast  Level Estimated
04:26PM 40.0614 30.0145 136° Southeast  Level Estimated
04:27PM 39.9905 30.1049 136° Southeast  Level Estimated
04:28PM 39.9195 30.1952 136° Southeast  Level Estimated
04:29PM 39.8484 30.2853 136° Southeast  Level Estimated
04:30PM 39.7773 30.3752 136° Southeast  Level Estimated
04:31PM 39.7061 30.4649 136° Southeast  Level Estimated
04:32PM 39.6348 30.5544 136° Southeast  Level Estimated
04:33PM 39.5635 30.6437 136° Southeast  Level Estimated
04:34PM 39.4921 30.7329 136° Southeast  Level Estimated
04:35PM 39.4206 30.8219 136° Southeast  Level Estimated
04:36PM 39.3490 30.9107 136° Southeast  Level Estimated
04:37PM 39.2774 30.9993 136° Southeast  Level Estimated
04:38PM 39.2057 31.0877 136° Southeast  Level Estimated
04:39PM 39.1340 31.1760 136° Southeast  Level Estimated
04:40PM 39.0622 31.2640 136° Southeast  Level Estimated
04:41PM 38.9903 31.3519 136° Southeast  Level Estimated
04:42PM 38.9184 31.4396 136° Southeast  Level Estimated
04:43PM 38.8464 31.5272 137° Southeast  Level Estimated
04:44PM 38.7743 31.6145 137° Southeast  Level Estimated
04:45PM 38.7021 31.7017 137° Southeast  Level Estimated
04:46PM 38.6299 31.7887 137° Southeast  Level Estimated
04:47PM 38.5577 31.8755 137° Southeast  Level Estimated
04:48PM 38.4853 31.9622 137° Southeast  Level Estimated
04:49PM 38.4129 32.0487 137° Southeast  Level Estimated
04:50PM 38.3405 32.1350 137° Southeast  Level Estimated
04:51PM 38.2679 32.2211 137° Southeast  Level Estimated
04:52PM 38.1954 32.3071 137° Southeast  Level Estimated
04:53PM 38.1227 32.3929 137° Southeast  Level Estimated
04:54PM 38.0500 32.4785 137° Southeast  Level Estimated
04:55PM 37.9790 32.5619 137° Southeast  Level Estimated
04:56PM 37.9790 32.5619 90° East  Level Estimated
04:57PM 37.9790 32.5619 90° East  Level Estimated
04:58PM 37.9790 32.5619 90° East  Level Estimated
04:59PM 37.9790 32.5619 90° East  Level Estimated
05:00PM 37.9790 32.5619 90° East  Level Estimated
05:01PM 37.9790 32.5619 90° East  Level Estimated
05:02PM 37.9790 32.5619 90° East  Level Estimated
05:03PM 37.9790 32.5619 90° East  Level Estimated
05:04PM 37.9790 32.5619 90° East  Level Estimated
05:05PM 37.9790 32.5619 90° East  Level Estimated
05:06PM 37.9790 32.5619 90° East  Level Estimated
05:07PM 37.9790 32.5619 90° East  Level Estimated
05:08PM 37.9790 32.5619 90° East  Level Estimated
05:09PM 37.9790 32.5619 90° East  Level Estimated